Time;durP1;ratioP1;P1;durP2;ratioP2;P2;SDS_P1;SDS_P2;PMS_P1;PMS_P2;Temp;Humidity;BMP_temperature;BMP_pressure;BME280_temperature;BME280_humidity;BME280_pressure;Samples;Min_cycle;Max_cycle;Signal;HPM_P1;HPM_P2
2021/01/14 00:02:27;;;;;;;66.65;34.75;;;;;;;2.17;87.10;98891.48;1772765;78;21187;-66
2021/01/14 00:04:56;;;;;;;63.90;32.10;;;;;;;2.24;87.12;98892.60;1772736;78;21168;-67
2021/01/14 00:07:22;;;;;;;66.05;33.25;;;;;;;2.26;87.19;98889.38;1773562;78;21228;-68
2021/01/14 00:09:48;;;;;;;66.70;32.53;;;;;;;2.30;86.98;98895.95;1774619;78;26788;-68
2021/01/14 00:12:14;;;;;;;62.10;32.95;;;;;;;2.29;86.80;98893.02;1774588;78;21734;-67
2021/01/14 00:14:40;;;;;;;66.97;34.47;;;;;;;2.33;86.72;98885.26;1774004;78;21602;-67
2021/01/14 00:17:05;;;;;;;63.50;33.23;;;;;;;2.31;86.56;98893.70;1773535;78;25039;-67
2021/01/14 00:19:31;;;;;;;71.90;35.33;;;;;;;2.36;86.70;98895.90;1776027;78;20998;-67
2021/01/14 00:21:57;;;;;;;67.20;34.57;;;;;;;2.17;86.43;98893.59;1775631;78;25821;-68
2021/01/14 00:24:22;;;;;;;65.77;33.57;;;;;;;2.20;86.81;98888.61;1772273;78;26449;-70
2021/01/14 00:26:48;;;;;;;71.47;35.60;;;;;;;2.25;86.81;98891.62;1778727;78;22107;-67
2021/01/14 00:29:14;;;;;;;69.83;34.50;;;;;;;2.31;86.75;98893.70;1774786;78;22445;-67
2021/01/14 00:31:40;;;;;;;75.20;36.40;;;;;;;2.36;86.68;98894.11;1747273;80;21031;-67
2021/01/14 00:34:06;;;;;;;74.00;37.67;;;;;;;2.38;86.35;98898.72;1772161;78;26810;-67
2021/01/14 00:39:24;;;;;;;81.47;37.35;;;;;;;2.26;86.42;98894.59;1773115;78;21153;-67
2021/01/14 00:41:51;;;;;;;77.00;36.48;;;;;;;2.35;86.62;98892.48;1772061;78;21198;-67
2021/01/14 00:44:16;;;;;;;76.53;37.00;;;;;;;2.38;86.49;98901.33;1776001;78;21176;-67
2021/01/14 00:46:42;;;;;;;78.90;39.17;;;;;;;2.41;86.00;98896.31;1772102;78;28707;-67
2021/01/14 00:49:08;;;;;;;80.07;39.90;;;;;;;2.41;85.77;98899.75;1772530;78;25133;-68
2021/01/14 00:51:39;;;;;;;78.20;37.67;;;;;;;2.46;85.87;98902.77;1771175;78;21370;-67
2021/01/14 00:54:06;;;;;;;79.40;39.42;;;;;;;2.50;85.91;98905.92;1774806;79;21232;-67
2021/01/14 00:56:36;;;;;;;75.90;37.67;;;;;;;2.40;85.51;98897.28;1781893;78;21203;-68
2021/01/14 00:59:03;;;;;;;80.20;39.75;;;;;;;2.32;85.50;98897.95;1772005;79;21898;-69
2021/01/14 01:01:29;;;;;;;84.22;39.15;;;;;;;2.35;85.87;98908.11;1774389;79;21584;-68
2021/01/14 01:03:55;;;;;;;85.60;40.60;;;;;;;2.35;85.53;98897.69;1771472;79;21616;-68
2021/01/14 01:06:21;;;;;;;77.83;38.53;;;;;;;2.25;85.56;98908.55;1776421;79;22708;-67
2021/01/14 01:08:50;;;;;;;72.65;38.20;;;;;;;2.26;85.94;98903.22;1771204;79;21168;-68
2021/01/14 01:11:27;;;;;;;82.35;38.40;;;;;;;2.35;85.92;98900.30;1773151;79;21193;-68
2021/01/14 01:13:53;;;;;;;67.22;35.05;;;;;;;2.27;85.56;98902.72;1774772;79;21129;-67
2021/01/14 01:16:19;;;;;;;71.02;35.75;;;;;;;2.31;85.91;98896.30;1773737;79;21613;-67
2021/01/14 01:18:45;;;;;;;72.30;36.67;;;;;;;2.32;85.77;98896.16;1770565;79;23654;-68
2021/01/14 01:21:12;;;;;;;70.40;35.27;;;;;;;2.38;85.59;98897.42;1771510;80;21212;-67
2021/01/14 01:23:37;;;;;;;68.67;37.45;;;;;;;2.32;85.54;98896.66;1772360;80;21799;-66
2021/01/14 01:26:06;;;;;;;67.57;35.60;;;;;;;2.37;85.43;98892.34;1767681;79;25219;-67
2021/01/14 01:28:32;;;;;;;69.53;36.73;;;;;;;2.37;85.55;98891.85;1770644;79;21920;-67
2021/01/14 01:30:58;;;;;;;68.55;35.43;;;;;;;2.44;85.50;98885.62;1736415;79;21190;-68
2021/01/14 01:33:28;;;;;;;73.65;37.08;;;;;;;2.49;85.40;98894.69;1769872;80;21189;-68
2021/01/14 01:35:54;;;;;;;67.75;35.55;;;;;;;2.55;85.28;98897.70;1770107;79;21158;-68
2021/01/14 01:38:19;;;;;;;72.12;36.58;;;;;;;2.49;84.61;98901.20;1774229;79;21161;-68
2021/01/14 01:40:58;;;;;;;70.73;37.50;;;;;;;2.48;84.73;98900.84;1773600;79;20917;-67
2021/01/14 01:43:24;;;;;;;70.83;36.30;;;;;;;2.50;84.79;98898.95;1772755;80;21185;-67
2021/01/14 01:45:50;;;;;;;72.87;36.70;;;;;;;2.55;84.64;98901.61;1774671;80;21601;-69
2021/01/14 01:48:16;;;;;;;67.87;36.23;;;;;;;2.53;84.29;98904.84;1779028;80;27700;-68
2021/01/14 01:50:44;;;;;;;70.12;34.75;;;;;;;2.42;84.28;98901.38;1773262;79;21166;-69
2021/01/14 01:53:10;;;;;;;69.37;33.85;;;;;;;2.43;84.69;98901.73;1769977;79;21126;-69
2021/01/14 01:55:37;;;;;;;69.22;34.53;;;;;;;2.48;84.81;98906.05;1774234;79;21130;-68
2021/01/14 01:58:04;;;;;;;70.15;36.28;;;;;;;2.54;84.74;98898.67;1769582;79;21220;-69
2021/01/14 02:00:30;;;;;;;66.50;33.92;;;;;;;2.55;84.45;98902.91;1773016;79;21172;-67
2021/01/14 02:02:56;;;;;;;66.33;34.55;;;;;;;2.55;84.34;98910.73;1771556;80;21209;-67
2021/01/14 02:05:22;;;;;;;70.20;36.43;;;;;;;2.50;84.42;98893.73;1773616;79;21422;-68
2021/01/14 02:07:53;;;;;;;76.83;37.53;;;;;;;2.57;84.30;98904.44;1772315;80;23348;-68
2021/01/14 02:10:30;;;;;;;70.85;36.08;;;;;;;2.51;84.33;98901.88;1773245;79;21201;-70
2021/01/14 02:13:29;;;;;;;70.85;34.95;;;;;;;2.39;84.24;98901.65;1770849;79;21736;-68
2021/01/14 02:16:01;;;;;;;73.75;37.88;;;;;;;2.35;84.65;98912.02;1775411;79;21157;-68
2021/01/14 02:18:27;;;;;;;73.45;35.75;;;;;;;2.26;84.95;98912.81;1777255;79;22183;-68
2021/01/14 02:20:56;;;;;;;76.50;39.20;;;;;;;2.21;85.24;98913.70;1747976;79;22335;-69
2021/01/14 02:23:52;;;;;;;74.65;39.38;;;;;;;2.13;85.62;98920.39;1783820;79;21634;-69
2021/01/14 02:26:23;;;;;;;73.12;37.65;;;;;;;2.01;86.14;98916.24;1773489;79;21192;-68
2021/01/14 02:28:48;;;;;;;77.72;40.12;;;;;;;1.96;86.57;98923.63;1777035;79;21633;-68
2021/01/14 02:31:15;;;;;;;88.87;41.23;;;;;;;1.97;86.70;98923.50;1778915;79;22961;-68
2021/01/14 02:33:41;;;;;;;72.82;37.70;;;;;;;2.01;86.67;98924.05;1772192;79;21156;-69
2021/01/14 02:36:07;;;;;;;75.28;39.55;;;;;;;2.12;86.63;98926.55;1781339;79;21630;-69
2021/01/14 02:38:35;;;;;;;74.45;38.02;;;;;;;2.18;86.38;98929.59;1775139;79;21173;-68
2021/01/14 02:41:01;;;;;;;76.85;39.08;;;;;;;2.24;86.13;98931.67;1778316;79;21176;-67
2021/01/14 02:43:27;;;;;;;79.90;40.13;;;;;;;2.30;85.72;98928.50;1779906;78;21300;-68
2021/01/14 02:45:53;;;;;;;80.70;40.83;;;;;;;2.39;85.43;98927.70;1775049;79;20938;-69
2021/01/14 02:48:23;;;;;;;76.97;39.90;;;;;;;2.46;85.14;98920.20;1778626;79;20933;-69
2021/01/14 02:50:52;;;;;;;78.70;39.98;;;;;;;2.48;84.94;98924.30;1746818;79;21168;-69
2021/01/14 02:53:18;;;;;;;79.58;40.55;;;;;;;2.55;84.85;98924.60;1779441;79;21188;-69
2021/01/14 02:55:44;;;;;;;81.43;40.07;;;;;;;2.57;84.69;98924.47;1780304;79;22533;-68
2021/01/14 02:58:10;;;;;;;81.10;42.23;;;;;;;2.58;84.54;98926.09;1781428;79;23313;-69
2021/01/14 03:00:36;;;;;;;83.70;39.20;;;;;;;2.41;84.36;98924.51;1755205;79;21166;-68
2021/01/14 03:03:02;;;;;;;79.32;40.00;;;;;;;2.30;85.08;98927.20;1778347;79;27568;-69
2021/01/14 03:05:28;;;;;;;79.80;40.05;;;;;;;2.29;85.32;98932.09;1779938;79;25410;-69
2021/01/14 03:07:53;;;;;;;79.47;39.63;;;;;;;2.21;85.52;98928.03;1789291;79;21895;-69
2021/01/14 03:10:19;;;;;;;80.80;39.83;;;;;;;2.21;85.73;98934.55;1786121;79;23338;-69
2021/01/14 03:12:45;;;;;;;76.17;39.30;;;;;;;2.11;85.87;98929.28;1775658;79;20934;-69
2021/01/14 03:15:11;;;;;;;74.30;38.97;;;;;;;2.13;86.01;98929.50;1774447;79;25831;-69
2021/01/14 03:17:37;;;;;;;82.33;40.20;;;;;;;2.24;85.99;98935.58;1742926;80;21150;-69
2021/01/14 03:20:06;;;;;;;79.20;40.23;;;;;;;2.28;85.83;98938.25;1719067;82;21115;-69
2021/01/14 03:22:38;;;;;;;80.60;41.63;;;;;;;2.28;85.72;98931.73;1718510;82;21252;-67
2021/01/14 03:25:08;;;;;;;77.17;39.27;;;;;;;2.33;85.57;98925.63;1720652;82;21193;-67
2021/01/14 03:27:40;;;;;;;82.55;40.38;;;;;;;2.33;85.46;98931.69;1713803;82;21237;-68
2021/01/14 03:30:07;;;;;;;83.80;43.35;;;;;;;2.37;85.45;98928.33;1714060;82;21173;-72
2021/01/14 03:32:34;;;;;;;76.62;38.78;;;;;;;2.08;85.82;98931.70;1740956;81;21748;-69
2021/01/14 03:35:00;;;;;;;83.05;41.08;;;;;;;2.10;85.96;98933.67;1740131;81;21229;-68
2021/01/14 03:37:25;;;;;;;87.83;42.70;;;;;;;2.08;86.01;98938.20;1722433;82;20990;-68
2021/01/14 03:39:51;;;;;;;78.70;42.37;;;;;;;1.97;86.21;98940.87;1721880;82;26874;-68
2021/01/14 03:42:20;;;;;;;80.30;41.37;;;;;;;1.97;86.49;98940.87;1718078;82;25207;-69
2021/01/14 03:44:46;;;;;;;82.30;42.60;;;;;;;1.97;86.43;98942.18;1706599;82;22040;-67
2021/01/14 03:47:13;;;;;;;89.00;44.10;;;;;;;1.81;87.21;98944.45;1728520;82;21228;-68
2021/01/14 03:49:39;;;;;;;87.12;43.28;;;;;;;1.75;87.69;98940.58;1708042;82;21223;-68
2021/01/14 03:52:04;;;;;;;88.23;42.93;;;;;;;1.75;87.96;98942.70;1741472;81;25782;-68
2021/01/14 03:54:30;;;;;;;84.57;43.67;;;;;;;1.72;87.99;98949.47;1707231;82;26795;-68
2021/01/14 03:56:56;;;;;;;86.23;43.97;;;;;;;1.66;88.18;98945.27;1723084;82;21647;-68
2021/01/14 03:59:21;;;;;;;84.00;42.57;;;;;;;1.61;88.33;98949.55;1710723;82;21317;-69
2021/01/14 04:01:47;;;;;;;81.27;40.27;;;;;;;1.63;88.21;98946.33;1739245;81;20960;-69
2021/01/14 04:04:13;;;;;;;82.90;41.07;;;;;;;1.74;88.01;98947.58;1744157;81;24876;-69
2021/01/14 04:06:39;;;;;;;81.33;41.50;;;;;;;1.81;87.64;98948.36;1722294;82;26173;-68
2021/01/14 04:09:05;;;;;;;92.53;43.30;;;;;;;1.88;87.45;98955.98;1736645;81;21191;-68
2021/01/14 04:11:31;;;;;;;84.03;40.28;;;;;;;1.75;87.54;98951.81;1741419;80;21181;-68
2021/01/14 04:13:57;;;;;;;81.67;39.97;;;;;;;1.75;87.50;98949.70;1735539;81;20975;-69
2021/01/14 04:16:23;;;;;;;92.60;45.60;;;;;;;1.70;87.70;98951.38;1736657;81;23869;-69
2021/01/14 04:18:49;;;;;;;98.33;48.07;;;;;;;1.64;87.79;98953.69;1737472;81;26252;-68
2021/01/14 04:21:15;;;;;;;92.77;44.60;;;;;;;1.54;88.26;98957.51;1734485;81;21473;-68
2021/01/14 04:23:43;;;;;;;89.10;42.10;;;;;;;1.43;88.47;98954.53;1728094;81;21203;-69
2021/01/14 04:26:08;;;;;;;86.25;42.65;;;;;;;1.55;88.49;98956.56;1703245;81;21232;-69
2021/01/14 04:28:34;;;;;;;90.03;47.17;;;;;;;1.56;88.33;98958.23;1730395;81;25769;-69
2021/01/14 04:31:00;;;;;;;100.97;47.60;;;;;;;1.69;88.08;98951.02;1730867;81;25197;-68
2021/01/14 04:33:26;;;;;;;90.30;42.07;;;;;;;1.51;88.18;98956.47;1739294;81;21635;-68
2021/01/14 04:35:54;;;;;;;85.50;42.33;;;;;;;1.60;88.22;98959.60;1732644;81;21601;-69
2021/01/14 04:38:21;;;;;;;85.70;42.27;;;;;;;1.71;88.02;98954.80;1732412;81;21244;-71
2021/01/14 04:41:00;;;;;;;93.60;43.08;;;;;;;1.75;87.79;98953.11;1736055;81;21126;-69
2021/01/14 04:43:28;;;;;;;90.10;43.38;;;;;;;1.81;87.72;98959.59;1731614;80;22780;-69
2021/01/14 04:46:04;;;;;;;84.20;42.88;;;;;;;1.81;87.86;98962.67;1734380;81;21208;-70
2021/01/14 04:48:25;;;;;;;84.13;39.75;;;;;;;1.83;87.81;98962.88;1733106;81;21513;-69
2021/01/14 04:50:50;;;;;;;84.67;41.17;;;;;;;1.87;87.86;98963.46;1730443;81;21571;-69
2021/01/14 04:53:19;;;;;;;95.53;44.03;;;;;;;1.89;87.67;98970.17;1735764;81;26848;-70
2021/01/14 04:55:46;;;;;;;86.57;42.55;;;;;;;1.89;87.74;98974.56;1734628;81;21577;-69
2021/01/14 04:58:19;;;;;;;82.17;40.85;;;;;;;1.91;87.73;98966.98;1730890;81;21275;-69
2021/01/14 05:00:51;;;;;;;76.15;38.13;;;;;;;1.96;87.52;98975.70;1735779;81;21142;-69
2021/01/14 05:03:26;;;;;;;84.03;41.80;;;;;;;1.98;87.45;98981.59;1736613;81;21169;-69
2021/01/14 05:05:52;;;;;;;87.17;42.08;;;;;;;2.05;87.16;98984.48;1733122;81;21164;-69
2021/01/14 05:08:30;;;;;;;87.80;44.17;;;;;;;1.88;87.39;98988.52;1739129;81;23212;-69
2021/01/14 05:10:57;;;;;;;100.10;46.30;;;;;;;1.86;87.80;98994.34;1737015;81;21229;-68
2021/01/14 05:13:24;;;;;;;93.70;45.10;;;;;;;1.73;88.41;98988.86;1736851;81;21634;-69
2021/01/14 05:15:49;;;;;;;102.05;48.38;;;;;;;1.77;88.42;98985.06;1735192;81;21197;-69
2021/01/14 05:18:15;;;;;;;89.55;44.98;;;;;;;1.73;88.50;98992.77;1732933;81;21656;-69
2021/01/14 05:20:41;;;;;;;102.03;47.70;;;;;;;1.85;88.58;98990.08;1736515;81;25194;-70
2021/01/14 05:23:07;;;;;;;89.37;44.17;;;;;;;1.99;87.75;98991.06;1732608;81;21209;-68
2021/01/14 05:25:33;;;;;;;85.33;42.40;;;;;;;2.07;87.29;99000.34;1729511;82;23233;-68
2021/01/14 05:28:13;;;;;;;81.02;42.08;;;;;;;2.09;86.97;99004.93;1736175;81;21157;-68
2021/01/14 05:30:40;;;;;;;90.45;43.60;;;;;;;2.12;86.87;99003.37;1732444;82;21779;-68
2021/01/14 05:33:19;;;;;;;83.07;40.70;;;;;;;2.13;86.54;99009.42;1727699;80;21254;-69
2021/01/14 05:35:47;;;;;;;83.35;41.45;;;;;;;2.18;86.56;99006.42;1730603;81;21570;-69
2021/01/14 05:38:28;;;;;;;82.75;41.73;;;;;;;2.12;86.44;99004.67;1727305;82;21256;-68
2021/01/14 05:41:19;;;;;;;88.10;42.58;;;;;;;2.15;86.33;99012.22;1731805;82;21559;-68
2021/01/14 05:43:58;;;;;;;84.30;41.65;;;;;;;2.11;86.37;99014.77;1727488;80;21136;-70
2021/01/14 05:46:29;;;;;;;93.33;44.18;;;;;;;2.07;86.35;99017.27;1729093;82;21151;-69
2021/01/14 05:48:57;;;;;;;94.15;44.80;;;;;;;1.82;86.93;99021.57;1731133;82;21886;-69
2021/01/14 05:51:33;;;;;;;97.08;46.75;;;;;;;1.69;87.46;99021.29;1734875;81;21168;-69
2021/01/14 05:54:12;;;;;;;91.45;44.50;;;;;;;1.63;87.71;99017.89;1726166;82;21172;-69
2021/01/14 05:56:47;;;;;;;85.17;42.70;;;;;;;1.68;87.83;99022.26;1716562;81;21211;-69
2021/01/14 05:59:15;;;;;;;85.87;42.05;;;;;;;1.73;87.85;99027.09;1708455;81;21192;-70
2021/01/14 06:01:54;;;;;;;;;;;;;;;1.83;87.58;99027.13;1735682;82;21722;-70
2021/01/14 06:04:22;;;;;;;75.55;35.00;;;;;;;1.74;87.62;99032.16;1732508;81;20295;-69
2021/01/14 06:06:53;;;;;;;89.50;43.95;;;;;;;1.81;87.63;99034.26;1729835;82;21167;-69
2021/01/14 06:09:20;;;;;;;90.40;43.42;;;;;;;1.66;87.89;99033.25;1729903;82;21205;-69
2021/01/14 06:11:48;;;;;;;85.47;40.38;;;;;;;1.66;88.05;99034.55;1727208;82;21145;-70
2021/01/14 06:14:30;;;;;;;83.00;40.10;;;;;;;1.75;87.90;99032.49;1729785;82;21229;-69
2021/01/14 06:17:00;;;;;;;82.62;39.95;;;;;;;1.78;87.58;99032.23;1732221;82;21187;-69
2021/01/14 06:19:26;;;;;;;80.85;39.05;;;;;;;1.85;87.19;99036.93;1729711;82;21232;-69
2021/01/14 06:21:58;;;;;;;84.47;37.90;;;;;;;1.86;87.05;99039.89;1741585;80;21190;-68
2021/01/14 06:24:35;;;;;;;83.55;41.37;;;;;;;1.86;87.11;99041.20;1747483;80;21249;-69
2021/01/14 06:27:10;;;;;;;90.40;41.53;;;;;;;1.92;86.88;99042.80;1750043;80;21188;-69
2021/01/14 06:29:40;;;;;;;80.17;38.47;;;;;;;1.90;86.77;99047.32;1750915;81;21185;-68
2021/01/14 06:32:12;;;;;;;86.53;41.68;;;;;;;1.85;86.80;99048.64;1749881;81;22126;-69
2021/01/14 06:34:49;;;;;;;85.07;40.58;;;;;;;1.76;86.90;99055.46;1750087;80;21611;-68
2021/01/14 06:37:22;;;;;;;73.33;36.10;;;;;;;1.71;87.11;99058.89;1760853;80;21188;-68
2021/01/14 06:39:55;;;;;;;88.35;41.13;;;;;;;1.75;87.25;99059.81;1745489;81;21643;-66
2021/01/14 06:42:28;;;;;;;90.25;42.75;;;;;;;1.83;86.63;99058.38;1738766;81;21236;-66
2021/01/14 06:45:00;;;;;;;91.90;42.85;;;;;;;1.85;86.26;99064.27;1745675;81;21203;-66
2021/01/14 06:47:36;;;;;;;94.72;43.45;;;;;;;1.89;86.14;99070.87;1743049;81;21579;-64
2021/01/14 06:50:24;;;;;;;84.67;39.63;;;;;;;1.97;85.95;99066.70;1748494;81;21216;-64
2021/01/14 06:53:02;;;;;;;75.83;36.58;;;;;;;2.05;85.60;99073.87;1751907;80;21247;-64
2021/01/14 06:55:33;;;;;;;80.85;40.20;;;;;;;2.11;85.35;99080.32;1752654;80;21181;-65
2021/01/14 06:58:17;;;;;;;82.65;39.27;;;;;;;2.00;85.39;99085.61;1750768;80;21204;-64
2021/01/14 07:00:46;;;;;;;80.60;37.88;;;;;;;2.02;85.39;99083.69;1755830;80;21184;-63
2021/01/14 07:03:18;;;;;;;86.85;42.05;;;;;;;1.93;85.32;99096.53;1751359;80;21654;-63
2021/01/14 07:05:58;;;;;;;87.88;42.08;;;;;;;1.83;85.75;99097.41;1742730;81;21208;-63
2021/01/14 07:08:37;;;;;;;75.60;36.65;;;;;;;1.90;85.78;99093.36;1754940;80;21173;-64
2021/01/14 07:11:13;;;;;;;75.10;36.88;;;;;;;2.00;85.47;99100.75;1758808;80;21232;-64
2021/01/14 07:13:46;;;;;;;78.70;39.00;;;;;;;2.06;85.21;99107.23;1762429;80;21164;-64
2021/01/14 07:16:23;;;;;;;78.12;36.25;;;;;;;2.02;84.66;99113.64;1755799;80;21569;-64
2021/01/14 07:18:50;;;;;;;;;;;;;;;2.04;84.51;99111.27;1747530;81;21497;-64
2021/01/14 07:21:29;;;;;;;70.80;33.98;;;;;;;2.08;84.51;99119.19;1737700;81;20298;-64
2021/01/14 07:24:18;;;;;;;70.62;33.73;;;;;;;1.99;84.20;99116.04;1736152;81;21162;-64
2021/01/14 07:26:53;;;;;;;78.55;36.70;;;;;;;1.84;84.26;99122.50;1735496;81;21244;-64
2021/01/14 07:29:19;;;;;;;80.03;36.77;;;;;;;1.72;84.65;99134.25;1735513;81;21201;-64
2021/01/14 07:31:55;;;;;;;80.95;37.38;;;;;;;1.78;84.64;99130.33;1734991;81;21238;-65
2021/01/14 07:34:45;;;;;;;76.65;36.55;;;;;;;1.74;84.64;99131.06;1734999;81;21212;-65
2021/01/14 07:37:16;;;;;;;70.92;34.25;;;;;;;1.72;84.43;99136.84;1735294;82;21224;-64
2021/01/14 07:39:57;;;;;;;76.00;36.45;;;;;;;1.69;84.23;99137.58;1734844;81;21211;-65
2021/01/14 07:42:30;;;;;;;73.85;34.63;;;;;;;1.71;83.81;99134.38;1735444;81;21137;-65
2021/01/14 07:45:06;;;;;;;72.05;33.92;;;;;;;1.68;83.65;99141.97;1737782;81;22334;-65
2021/01/14 07:47:34;;;;;;;78.83;36.75;;;;;;;1.75;83.61;99132.69;1735170;82;21185;-66
2021/01/14 07:50:24;;;;;;;73.62;34.27;;;;;;;1.69;83.38;99144.91;1730238;81;21192;-65
2021/01/14 07:52:51;;;;;;;72.08;33.35;;;;;;;1.67;83.02;99153.31;1738722;81;21200;-66
2021/01/14 07:55:38;;;;;;;72.27;33.58;;;;;;;1.74;83.58;99147.98;1734051;81;21265;-68
2021/01/14 07:58:08;;;;;;;71.12;33.63;;;;;;;1.72;82.95;99153.77;1735783;81;21267;-66
2021/01/14 08:00:34;;;;;;;72.75;34.85;;;;;;;1.81;83.20;99153.99;1734809;81;21265;-66
2021/01/14 08:03:13;;;;;;;70.87;33.93;;;;;;;1.72;82.84;99155.06;1733988;82;20928;-66
2021/01/14 08:06:03;;;;;;;74.35;35.75;;;;;;;1.79;82.94;99169.25;1740283;81;21756;-68
2021/01/14 08:08:30;;;;;;;82.60;35.68;;;;;;;1.60;83.15;99178.17;1736423;81;21591;-66
2021/01/14 08:11:17;;;;;;;78.33;37.13;;;;;;;1.67;83.53;99175.44;1734527;81;21186;-67
2021/01/14 08:14:23;;;;;;;71.22;33.45;;;;;;;1.85;82.87;99178.80;1737998;82;21192;-67
2021/01/14 08:16:54;;;;;;;70.78;33.40;;;;;;;2.08;81.83;99188.19;1734439;81;21141;-66
2021/01/14 08:19:36;;;;;;;59.90;30.65;;;;;;;2.34;80.22;99189.11;1738395;81;21223;-66
2021/01/14 08:22:10;;;;;;;68.75;34.53;;;;;;;2.28;80.09;99193.52;1725997;82;21213;-66
2021/01/14 08:24:59;;;;;;;67.62;32.20;;;;;;;2.31;80.32;99194.58;1719008;82;21197;-65
2021/01/14 08:27:35;;;;;;;71.20;34.58;;;;;;;2.32;80.38;99193.63;1723069;82;21272;-67
2021/01/14 08:30:16;;;;;;;65.05;30.62;;;;;;;2.22;80.60;99201.84;1704342;82;21262;-66
2021/01/14 08:32:49;;;;;;;71.12;32.90;;;;;;;2.26;80.57;99208.46;1766477;79;21185;-66
2021/01/14 08:35:19;;;;;;;73.78;34.43;;;;;;;2.11;80.64;99217.89;1765597;79;21610;-65
2021/01/14 08:38:13;;;;;;;74.03;33.48;;;;;;;1.78;81.34;99220.12;1767325;79;21282;-65
2021/01/14 08:40:40;;;;;;;68.50;32.35;;;;;;;1.84;81.58;99216.22;1767991;79;21185;-66
2021/01/14 08:43:13;;;;;;;76.90;33.55;;;;;;;1.71;81.94;99228.06;1770714;80;21194;-66
2021/01/14 08:45:54;;;;;;;72.70;34.80;;;;;;;1.73;82.24;99230.09;1765590;80;21243;-65
2021/01/14 08:48:31;;;;;;;73.90;33.45;;;;;;;1.69;82.51;99245.10;1768538;80;21217;-65
2021/01/14 08:51:01;;;;;;;70.50;30.37;;;;;;;1.76;82.34;99242.38;1764818;80;21234;-64
2021/01/14 08:53:34;;;;;;;60.00;26.33;;;;;;;1.69;82.44;99250.30;1765783;80;21428;-65
2021/01/14 08:56:07;;;;;;;59.23;27.80;;;;;;;1.31;82.88;99258.05;1767161;80;21160;-66
2021/01/14 08:58:43;;;;;;;62.65;27.17;;;;;;;1.37;83.31;99262.78;1768804;80;21103;-66
2021/01/14 09:01:24;;;;;;;72.15;33.42;;;;;;;1.25;83.94;99267.63;1768817;80;21608;-65
2021/01/14 09:03:54;;;;;;;65.65;30.12;;;;;;;1.17;84.56;99279.11;1766632;80;21258;-65
2021/01/14 09:06:34;;;;;;;64.60;27.70;;;;;;;1.31;84.74;99271.55;1768963;80;21217;-66
2021/01/14 09:09:02;;;;;;;69.32;31.35;;;;;;;1.35;84.21;99272.48;1734847;80;21184;-66
2021/01/14 09:11:29;;;;;;;64.62;29.80;;;;;;;1.36;84.31;99280.62;1764965;80;21712;-66
2021/01/14 09:14:18;;;;;;;55.88;25.40;;;;;;;1.41;84.32;99278.52;1767031;80;21177;-66
2021/01/14 09:16:52;;;;;;;56.20;25.00;;;;;;;1.52;83.85;99280.25;1707478;80;21988;-64
2021/01/14 09:19:20;;;;;;;55.20;25.48;;;;;;;1.58;83.13;99276.35;1748751;80;21548;-66
2021/01/14 09:21:52;;;;;;;;;;;;;;;1.49;83.14;99283.58;1773160;79;21185;-67
2021/01/14 09:24:16;;;;;;;46.73;21.35;;;;;;;1.59;83.20;99281.92;1774981;79;20305;-66
2021/01/14 09:26:49;;;;;;;51.63;23.50;;;;;;;1.73;83.06;99284.26;1774624;79;21184;-66
2021/01/14 09:29:15;;;;;;;50.73;24.15;;;;;;;1.73;82.99;99280.36;1769936;79;21486;-66
2021/01/14 09:31:41;;;;;;;59.85;26.23;;;;;;;1.82;83.12;99287.08;1775826;79;21189;-66
2021/01/14 09:34:10;;;;;;;48.92;24.00;;;;;;;1.85;82.52;99285.53;1774107;79;21197;-65
2021/01/14 09:36:35;;;;;;;53.13;24.10;;;;;;;1.92;82.36;99290.13;1775104;79;21403;-66
2021/01/14 09:39:05;;;;;;;56.10;26.00;;;;;;;1.89;82.46;99296.06;1773347;79;26627;-65
2021/01/14 09:41:39;;;;;;;48.98;22.82;;;;;;;1.82;82.81;99297.48;1748765;79;21615;-65
2021/01/14 09:44:10;;;;;;;57.93;25.35;;;;;;;1.97;82.62;99295.82;1747087;80;21573;-65
2021/01/14 09:46:44;;;;;;;57.93;24.15;;;;;;;2.16;81.59;99302.16;1747128;80;21157;-65
2021/01/14 09:49:15;;;;;;;51.68;25.08;;;;;;;2.26;81.26;99304.36;1751634;80;22399;-65
2021/01/14 09:51:42;;;;;;;43.00;21.42;;;;;;;2.26;81.00;99313.48;1749196;80;21213;-65
2021/01/14 09:54:09;;;;;;;48.65;23.10;;;;;;;2.03;80.84;99304.91;1748907;80;21208;-65
2021/01/14 09:56:37;;;;;;;;;;;;;;;1.98;80.92;99304.45;1751740;80;21618;-66
2021/01/14 09:59:32;;;;;;;49.73;22.35;;;;;;;1.98;81.04;99310.47;1749415;80;20346;-66
2021/01/14 10:02:07;;;;;;;55.67;25.35;;;;;;;1.98;81.49;99309.66;1748968;80;21129;-65
2021/01/14 10:04:33;;;;;;;54.13;24.43;;;;;;;2.04;81.55;99315.67;1741413;80;21187;-65
2021/01/14 10:07:06;;;;;;;48.42;23.73;;;;;;;1.97;81.78;99314.50;1747686;80;21400;-67
2021/01/14 10:09:35;;;;;;;55.30;25.17;;;;;;;1.90;81.38;99319.86;1723193;81;21187;-68
2021/01/14 10:12:03;;;;;;;54.48;24.82;;;;;;;1.95;81.53;99322.92;1751615;80;21205;-68
2021/01/14 10:14:29;;;;;;;50.50;24.23;;;;;;;1.75;81.24;99329.20;1748818;80;21574;-67
2021/01/14 10:16:54;;;;;;;48.97;24.80;;;;;;;1.92;81.19;99325.77;1746464;80;26558;-67
2021/01/14 10:19:22;;;;;;;50.70;23.93;;;;;;;2.02;80.97;99326.70;1749841;80;21771;-66
2021/01/14 10:21:48;;;;;;;49.60;23.18;;;;;;;2.12;80.87;99332.81;1751298;80;21265;-66
2021/01/14 10:24:29;;;;;;;40.00;19.57;;;;;;;2.11;80.46;99333.78;1759913;80;21660;-66
2021/01/14 10:27:14;;;;;;;41.55;20.17;;;;;;;2.02;80.13;99322.80;1762303;80;22122;-67
2021/01/14 10:29:39;;;;;;;45.83;22.67;;;;;;;2.17;80.15;99326.42;1759264;80;21120;-66
2021/01/14 10:32:12;;;;;;;46.60;21.62;;;;;;;2.15;80.31;99328.66;1761635;80;21234;-65
2021/01/14 10:34:50;;;;;;;46.48;23.40;;;;;;;2.23;80.02;99331.14;1756405;80;21249;-67
2021/01/14 10:37:35;;;;;;;41.92;20.62;;;;;;;2.18;79.95;99330.69;1755515;80;21499;-67
2021/01/14 10:40:19;;;;;;;43.90;21.27;;;;;;;2.13;79.56;99334.48;1755532;80;21022;-67
2021/01/14 10:42:48;;;;;;;37.70;17.73;;;;;;;2.17;79.72;99336.36;1756257;80;21148;-67
2021/01/14 10:45:23;;;;;;;45.83;21.23;;;;;;;1.95;79.38;99339.36;1757826;80;21224;-67
2021/01/14 10:47:49;;;;;;;39.70;20.35;;;;;;;2.05;79.60;99334.72;1741401;80;21173;-68
2021/01/14 10:50:25;;;;;;;42.00;20.32;;;;;;;1.81;80.54;99342.71;1763504;80;21229;-68
2021/01/14 10:53:06;;;;;;;41.83;20.08;;;;;;;1.98;80.78;99341.72;1761933;80;21441;-67
2021/01/14 10:55:30;;;;;;;39.40;18.60;;;;;;;1.92;80.28;99343.98;1757189;79;21211;-67
2021/01/14 10:57:57;;;;;;;45.73;21.52;;;;;;;2.03;80.33;99338.75;1754778;80;21274;-67
2021/01/14 11:00:28;;;;;;;40.50;19.67;;;;;;;2.11;79.87;99333.78;1754262;80;21220;-68
2021/01/14 11:03:10;;;;;;;41.80;21.10;;;;;;;2.17;79.83;99335.53;1728115;81;21134;-68
2021/01/14 11:05:52;;;;;;;45.30;21.75;;;;;;;1.91;79.16;99339.72;1743051;80;21192;-67
2021/01/14 11:08:30;;;;;;;39.95;17.55;;;;;;;1.90;79.43;99336.30;1720055;82;21216;-68
2021/01/14 11:11:11;;;;;;;39.83;20.10;;;;;;;1.87;79.52;99333.12;1726978;80;21204;-69
2021/01/14 11:13:46;;;;;;;45.88;21.15;;;;;;;1.66;79.60;99340.33;1751913;80;21202;-67
2021/01/14 11:16:15;;;;;;;38.50;20.72;;;;;;;1.86;80.05;99347.89;1789185;79;21229;-67
2021/01/14 11:18:45;;;;;;;46.70;21.40;;;;;;;2.14;79.51;99343.95;1790255;79;21199;-67
2021/01/14 11:21:13;;;;;;;41.95;20.72;;;;;;;2.18;79.05;99341.11;1789120;79;21228;-67
2021/01/14 11:23:39;;;;;;;38.73;19.87;;;;;;;2.13;78.99;99348.80;1757975;79;21223;-67
2021/01/14 11:26:05;;;;;;;42.57;20.10;;;;;;;2.08;79.34;99352.71;1790479;78;22291;-67
2021/01/14 11:28:38;;;;;;;41.65;20.92;;;;;;;2.08;79.54;99354.86;1797840;79;21587;-66
2021/01/14 11:31:06;;;;;;;42.98;22.00;;;;;;;2.00;79.84;99352.02;1789780;79;21133;-68
2021/01/14 11:33:31;;;;;;;;;;;;;;;1.73;80.18;99356.32;1790889;79;21144;-67
2021/01/14 11:35:57;;;;;;;32.08;16.90;;;;;;;1.73;80.45;99363.64;1784045;79;21187;-69
2021/01/14 11:38:23;;;;;;;34.65;17.27;;;;;;;1.87;79.91;99365.66;1786842;79;21728;-68
2021/01/14 11:40:50;;;;;;;34.47;17.47;;;;;;;1.92;79.61;99370.84;1785659;79;21557;-69
2021/01/14 11:43:16;;;;;;;31.30;15.85;;;;;;;1.85;77.86;99376.64;1787757;79;28466;-69
2021/01/14 11:45:42;;;;;;;29.02;16.35;;;;;;;1.79;76.46;99367.55;1797876;79;27137;-67
2021/01/14 11:48:08;;;;;;;28.97;16.50;;;;;;;1.91;76.60;99379.62;1790212;78;21361;-69